createdAt,value
2022-11-17T00:00:42.250Z,6.72
2022-11-17T00:03:14.752Z,6.45
2022-11-17T00:05:43.179Z,6.32
2022-11-17T00:08:09.956Z,6.20
2022-11-17T00:10:36.781Z,5.95
2022-11-17T00:13:21.953Z,6.72
2022-11-17T00:15:49.016Z,6.93
2022-11-17T00:18:34.156Z,7.68
2022-11-17T00:21:19.525Z,8.15
2022-11-17T00:23:50.043Z,7.25
2022-11-17T00:28:45.434Z,6.90
2022-11-17T00:31:33.977Z,8.80
2022-11-17T00:34:06.983Z,7.55
2022-11-17T00:36:45.271Z,9.02
2022-11-17T00:39:14.189Z,7.70
2022-11-17T00:41:40.933Z,7.75
2022-11-17T00:44:09.357Z,6.75
2022-11-17T00:46:37.342Z,7.00
2022-11-17T00:49:05.969Z,6.70
2022-11-17T00:51:33.190Z,7.13
2022-11-17T00:54:00.650Z,6.68
2022-11-17T00:56:27.707Z,8.45
2022-11-17T00:58:54.880Z,7.53
2022-11-17T01:01:22.186Z,8.45
2022-11-17T01:03:49.222Z,7.95
2022-11-17T01:06:19.835Z,7.35
2022-11-17T01:08:47.338Z,7.43
2022-11-17T01:11:17.409Z,7.65
2022-11-17T01:13:47.990Z,6.63
2022-11-17T01:16:19.382Z,6.15
2022-11-17T01:18:48.515Z,6.60
2022-11-17T01:21:23.379Z,7.05
2022-11-17T01:23:53.801Z,6.40
2022-11-17T01:26:25.900Z,5.95
2022-11-17T01:28:53.602Z,6.63
2022-11-17T01:31:23.445Z,6.70
2022-11-17T01:33:50.667Z,6.65
2022-11-17T01:36:23.141Z,4.55
2022-11-17T01:38:51.245Z,4.80
2022-11-17T01:41:21.953Z,5.38
2022-11-17T01:43:50.627Z,5.05
2022-11-17T01:46:33.600Z,5.03
2022-11-17T01:49:27.610Z,4.95
2022-11-17T01:52:03.562Z,4.97
2022-11-17T01:54:33.128Z,5.40
2022-11-17T01:57:11.438Z,3.90
2022-11-17T01:59:58.964Z,4.25
2022-11-17T02:02:26.257Z,4.22
2022-11-17T02:05:07.543Z,4.20
2022-11-17T02:07:38.225Z,4.15
2022-11-17T02:10:06.980Z,4.90
2022-11-17T02:12:35.692Z,3.83
2022-11-17T02:15:04.476Z,4.68
2022-11-17T02:17:42.613Z,6.15
2022-11-17T02:20:12.616Z,3.90
2022-11-17T02:22:53.991Z,5.05
2022-11-17T02:25:46.872Z,5.78
2022-11-17T02:28:18.584Z,4.95
2022-11-17T02:31:16.850Z,8.45
2022-11-17T02:34:03.531Z,5.15
2022-11-17T02:36:37.240Z,5.30
2022-11-17T02:39:42.992Z,6.47
2022-11-17T02:42:54.173Z,5.75
2022-11-17T02:45:36.431Z,8.20
2022-11-17T02:48:12.426Z,6.30
2022-11-17T02:50:44.687Z,6.88
2022-11-17T02:53:13.077Z,8.10
2022-11-17T02:55:39.766Z,7.55
2022-11-17T02:58:12.560Z,6.38
2022-11-17T03:01:02.152Z,5.85
2022-11-17T03:03:55.531Z,6.88
2022-11-17T03:07:00.659Z,4.35
2022-11-17T03:09:49.566Z,3.95
2022-11-17T03:12:31.686Z,4.35
2022-11-17T03:15:04.290Z,5.40
2022-11-17T03:17:50.877Z,3.55
2022-11-17T03:20:28.024Z,4.15
2022-11-17T03:25:35.148Z,3.90
2022-11-17T03:28:06.895Z,5.85
2022-11-17T03:30:37.718Z,4.95
2022-11-17T03:33:15.313Z,4.68
2022-11-17T03:35:50.676Z,4.47
2022-11-17T03:38:23.791Z,6.40
2022-11-17T03:40:54.207Z,3.53
2022-11-17T03:43:21.755Z,4.13
2022-11-17T03:45:51.665Z,3.53
2022-11-17T03:48:56.985Z,2.63
2022-11-17T03:51:28.437Z,3.42
2022-11-17T03:53:57.019Z,2.33
2022-11-17T03:56:45.707Z,1.90
2022-11-17T03:59:27.266Z,1.85
2022-11-17T04:01:54.280Z,1.50
2022-11-17T04:04:22.497Z,2.70
2022-11-17T04:06:53.262Z,1.90
2022-11-17T04:09:24.144Z,3.17
2022-11-17T04:12:11.305Z,1.90
2022-11-17T04:14:56.686Z,2.70
2022-11-17T04:17:23.816Z,2.15
2022-11-17T04:19:50.465Z,2.55
2022-11-17T04:22:17.479Z,1.95
2022-11-17T04:24:44.207Z,1.70
2022-11-17T04:27:30.900Z,1.80
2022-11-17T04:29:57.800Z,2.15
2022-11-17T04:32:24.489Z,2.10
2022-11-17T04:34:52.166Z,3.08
2022-11-17T04:37:18.879Z,1.88
2022-11-17T04:39:46.558Z,2.10
2022-11-17T04:42:13.290Z,2.00
2022-11-17T04:44:41.897Z,2.20
2022-11-17T04:47:08.586Z,3.33
2022-11-17T04:49:36.298Z,2.70
2022-11-17T04:52:03.135Z,2.60
2022-11-17T04:54:30.080Z,2.25
2022-11-17T04:56:57.101Z,3.25
2022-11-17T04:59:24.356Z,3.88
2022-11-17T05:01:51.353Z,4.50
2022-11-17T05:04:38.789Z,2.95
2022-11-17T05:07:08.329Z,3.85
2022-11-17T05:09:35.267Z,3.10
2022-11-17T05:12:20.890Z,2.97
2022-11-17T05:14:51.140Z,3.33
2022-11-17T05:17:18.227Z,4.35
2022-11-17T05:19:46.884Z,3.05
2022-11-17T05:22:35.367Z,4.07
2022-11-17T05:25:02.959Z,4.35
2022-11-17T05:27:29.840Z,5.05
2022-11-17T05:29:57.532Z,3.42
2022-11-17T05:32:24.242Z,2.75
2022-11-17T05:34:51.280Z,2.00
2022-11-17T05:37:18.551Z,1.85
2022-11-17T05:39:45.642Z,2.35
2022-11-17T05:42:12.430Z,1.40
2022-11-17T05:44:40.175Z,1.30
2022-11-17T05:47:07.293Z,1.70
2022-11-17T05:49:34.321Z,1.45
2022-11-17T05:52:01.069Z,2.30
2022-11-17T05:54:28.802Z,3.10
2022-11-17T05:57:02.508Z,2.97
2022-11-17T05:59:59.625Z,3.00
2022-11-17T06:02:34.893Z,2.47
2022-11-17T06:05:03.755Z,1.95
2022-11-17T06:07:30.783Z,4.28
2022-11-17T06:09:58.588Z,3.17
2022-11-17T06:12:25.322Z,2.97
2022-11-17T06:14:53.101Z,2.45
2022-11-17T06:17:38.084Z,2.30
2022-11-17T06:20:19.679Z,2.38
2022-11-17T06:22:49.138Z,2.03
2022-11-17T06:25:18.189Z,2.13
2022-11-17T06:27:47.733Z,1.52
2022-11-17T06:30:14.595Z,2.00
2022-11-17T06:32:44.247Z,1.88
2022-11-17T06:35:14.578Z,2.60
2022-11-17T06:37:41.429Z,1.33
2022-11-17T06:40:10.055Z,2.33
2022-11-17T06:42:58.133Z,2.42
2022-11-17T06:47:55.381Z,2.25
2022-11-17T06:50:22.373Z,2.05
2022-11-17T06:52:49.064Z,1.90
2022-11-17T06:55:16.918Z,2.38
2022-11-17T06:57:47.690Z,1.45
2022-11-17T07:00:19.023Z,2.92
2022-11-17T07:02:47.172Z,2.45
2022-11-17T07:05:14.151Z,2.72
2022-11-17T07:07:41.088Z,2.47
2022-11-17T07:10:10.822Z,1.83
2022-11-17T07:12:37.604Z,2.53
2022-11-17T07:15:08.025Z,3.00
2022-11-17T07:17:34.806Z,2.60
2022-11-17T07:20:01.839Z,3.67
2022-11-17T07:22:28.592Z,2.20
2022-11-17T07:24:56.360Z,1.70
2022-11-17T07:27:23.154Z,1.90
2022-11-17T07:29:54.120Z,1.70
2022-11-17T07:32:20.867Z,1.50
2022-11-17T07:34:49.863Z,1.40
2022-11-17T07:37:17.043Z,1.40
2022-11-17T07:39:43.997Z,1.80
2022-11-17T07:42:10.736Z,1.67
2022-11-17T07:44:38.514Z,1.65
2022-11-17T07:47:05.338Z,2.40
2022-11-17T07:49:33.232Z,1.45
2022-11-17T07:52:00.863Z,2.13
2022-11-17T07:54:28.185Z,1.70
2022-11-17T07:56:54.997Z,2.13
2022-11-17T07:59:22.876Z,1.40
2022-11-17T08:01:49.604Z,2.10
2022-11-17T08:04:21.400Z,2.20
2022-11-17T08:06:48.126Z,1.70
2022-11-17T08:09:16.254Z,1.52
2022-11-17T08:11:43.057Z,2.50
2022-11-17T08:14:11.564Z,2.78
2022-11-17T08:16:38.360Z,2.10
2022-11-17T08:19:06.279Z,1.98
2022-11-17T08:21:33.037Z,2.97
2022-11-17T08:24:00.283Z,1.63
2022-11-17T08:26:27.144Z,1.42
2022-11-17T08:28:58.474Z,2.30
2022-11-17T08:31:26.173Z,2.08
2022-11-17T08:33:52.943Z,2.47
2022-11-17T08:36:20.883Z,2.40
2022-11-17T08:38:47.766Z,1.95
2022-11-17T08:41:14.664Z,2.05
2022-11-17T08:43:41.409Z,1.75
2022-11-17T08:46:12.806Z,2.28
2022-11-17T08:48:40.101Z,2.10
2022-11-17T08:51:08.258Z,2.20
2022-11-17T08:53:36.290Z,1.90
2022-11-17T08:56:10.633Z,2.10
2022-11-17T08:58:45.212Z,2.67
2022-11-17T09:01:17.674Z,1.90
2022-11-17T09:03:47.794Z,1.80
2022-11-17T09:06:16.795Z,2.13
2022-11-17T09:08:46.947Z,4.00
2022-11-17T09:11:14.847Z,4.82
2022-11-17T09:13:42.324Z,3.45
2022-11-17T09:16:11.511Z,2.70
2022-11-17T09:18:41.472Z,1.90
2022-11-17T09:21:15.744Z,2.08
2022-11-17T09:23:47.494Z,1.45
2022-11-17T09:26:16.378Z,1.80
2022-11-17T09:28:44.614Z,1.67
2022-11-17T09:31:17.320Z,2.05
2022-11-17T09:33:44.692Z,2.53
2022-11-17T09:36:13.281Z,2.40
2022-11-17T09:38:40.945Z,3.25
2022-11-17T09:41:22.956Z,3.33
2022-11-17T09:44:02.794Z,2.72
2022-11-17T09:46:59.549Z,2.65
2022-11-17T09:50:00.868Z,2.15
2022-11-17T09:52:34.626Z,2.85
2022-11-17T09:55:17.564Z,2.50
2022-11-17T09:57:49.360Z,2.13
2022-11-17T10:00:22.179Z,2.92
2022-11-17T10:02:51.605Z,3.55
2022-11-17T10:05:34.162Z,2.55
2022-11-17T10:08:07.242Z,2.35
2022-11-17T10:10:36.198Z,2.75
2022-11-17T10:13:06.084Z,3.78
2022-11-17T10:15:47.464Z,2.80
2022-11-17T10:18:15.983Z,2.78
2022-11-17T10:20:44.315Z,3.95
2022-11-17T10:23:15.028Z,6.70
2022-11-17T10:25:44.638Z,6.32
2022-11-17T10:28:29.938Z,4.13
2022-11-17T10:31:00.306Z,3.50
2022-11-17T10:33:45.217Z,2.58
2022-11-17T10:36:21.070Z,2.22
2022-11-17T10:38:52.106Z,2.85
2022-11-17T10:41:23.632Z,2.30
2022-11-17T10:44:02.290Z,2.35
2022-11-17T10:46:38.220Z,2.95
2022-11-17T10:49:25.124Z,2.78
2022-11-17T10:52:16.478Z,3.10
2022-11-17T10:54:43.782Z,3.50
2022-11-17T10:57:20.696Z,4.38
2022-11-17T10:59:57.650Z,5.25
2022-11-17T11:02:33.875Z,5.68
2022-11-17T11:05:13.601Z,6.22
2022-11-17T11:07:40.778Z,6.00
2022-11-17T11:10:20.429Z,6.22
2022-11-17T11:12:59.351Z,6.05
2022-11-17T11:15:33.526Z,4.18
2022-11-17T11:18:00.325Z,4.53
2022-11-17T11:20:59.046Z,6.18
2022-11-17T11:23:33.535Z,5.00
2022-11-17T11:26:20.389Z,5.40
2022-11-17T11:29:05.178Z,4.80
2022-11-17T11:31:52.967Z,12.07
2022-11-17T11:34:31.860Z,8.52
2022-11-17T11:37:13.722Z,8.68
2022-11-17T11:39:59.564Z,5.57
2022-11-17T11:42:55.003Z,5.30
2022-11-17T11:45:49.335Z,5.80
2022-11-17T11:48:21.142Z,4.95
2022-11-17T11:50:59.735Z,4.20
2022-11-17T11:53:29.679Z,5.15
2022-11-17T11:56:10.390Z,15.20
2022-11-17T11:58:44.748Z,10.45
2022-11-17T12:01:17.195Z,4.97
2022-11-17T12:03:57.190Z,3.78
2022-11-17T12:06:40.281Z,3.72
2022-11-17T12:09:07.008Z,3.80
2022-11-17T12:11:52.676Z,4.97
2022-11-17T12:14:19.929Z,4.75
2022-11-17T12:16:48.147Z,4.60
2022-11-17T12:19:42.691Z,3.58
2022-11-17T12:22:23.056Z,3.65
2022-11-17T12:25:00.370Z,3.70
2022-11-17T12:27:36.220Z,4.40
2022-11-17T12:30:06.459Z,3.65
2022-11-17T12:32:45.488Z,4.03
2022-11-17T12:35:26.126Z,4.55
2022-11-17T12:38:17.741Z,4.55
2022-11-17T12:40:52.046Z,3.72
2022-11-17T12:43:21.445Z,3.85
2022-11-17T12:45:54.295Z,4.63
2022-11-17T12:48:34.663Z,3.65
2022-11-17T12:51:49.292Z,3.30
2022-11-17T12:54:23.108Z,3.88
2022-11-17T12:57:05.182Z,3.03
2022-11-17T12:59:47.788Z,3.80
2022-11-17T13:02:33.270Z,3.85
2022-11-17T13:05:21.168Z,4.85
2022-11-17T13:07:48.106Z,3.47
2022-11-17T13:10:30.178Z,4.38
2022-11-17T13:13:19.993Z,5.30
2022-11-17T13:15:56.362Z,4.93
2022-11-17T13:18:32.745Z,4.35
2022-11-17T13:21:01.136Z,4.15
2022-11-17T13:23:32.081Z,3.90
2022-11-17T13:26:09.933Z,3.72
2022-11-17T13:28:36.973Z,3.53
2022-11-17T13:31:04.112Z,3.50
2022-11-17T13:33:35.426Z,11.57
2022-11-17T13:36:19.940Z,5.72
2022-11-17T13:38:48.840Z,4.80
2022-11-17T13:41:17.562Z,9.48
2022-11-17T13:43:46.349Z,8.30
2022-11-17T13:46:13.196Z,8.18
2022-11-17T13:48:47.456Z,6.45
2022-11-17T13:51:20.283Z,5.97
2022-11-17T13:54:02.870Z,6.30
2022-11-17T13:56:41.654Z,5.95
2022-11-17T13:59:29.421Z,6.95
2022-11-17T14:02:20.775Z,4.03
2022-11-17T14:05:15.268Z,6.80
2022-11-17T14:07:44.045Z,5.30
2022-11-17T14:10:19.731Z,5.40
2022-11-17T14:12:52.454Z,6.35
2022-11-17T14:15:23.013Z,6.63
2022-11-17T14:17:58.531Z,6.43
2022-11-17T14:20:31.343Z,5.95
2022-11-17T14:23:11.250Z,7.68
2022-11-17T14:25:40.386Z,9.88
2022-11-17T14:28:20.706Z,8.23
2022-11-17T14:30:52.017Z,6.07
2022-11-17T14:33:19.286Z,4.85
2022-11-17T14:35:58.520Z,5.30
2022-11-17T14:38:25.693Z,3.33
2022-11-17T14:40:53.202Z,3.63
2022-11-17T14:43:21.577Z,3.65
2022-11-17T14:45:53.206Z,5.40
2022-11-17T14:48:20.433Z,4.60
2022-11-17T14:50:48.616Z,3.97
2022-11-17T14:53:15.711Z,3.85
2022-11-17T14:55:42.674Z,3.63
2022-11-17T14:58:10.202Z,4.10
2022-11-17T15:00:37.804Z,7.85
2022-11-17T15:03:05.340Z,6.53
2022-11-17T15:05:32.422Z,6.45
2022-11-17T15:07:59.347Z,6.15
2022-11-17T15:10:26.231Z,6.40
2022-11-17T15:12:53.040Z,4.55
2022-11-17T15:15:20.042Z,5.70
2022-11-17T15:17:46.768Z,5.22
2022-11-17T15:20:13.776Z,6.15
2022-11-17T15:22:40.610Z,12.77
2022-11-17T15:25:08.181Z,9.68
2022-11-17T15:27:35.021Z,5.63
2022-11-17T15:30:01.983Z,5.32
2022-11-17T15:32:28.889Z,5.47
2022-11-17T15:34:55.653Z,13.23
2022-11-17T15:37:22.378Z,8.63
2022-11-17T15:39:49.203Z,7.70
2022-11-17T15:42:15.972Z,5.60
2022-11-17T15:44:42.874Z,6.07
2022-11-17T15:47:09.625Z,6.35
2022-11-17T15:49:36.516Z,8.27
2022-11-17T15:52:03.345Z,14.80
2022-11-17T15:54:30.103Z,10.90
2022-11-17T15:56:56.868Z,15.05
2022-11-17T15:59:23.664Z,9.77
2022-11-17T16:01:50.535Z,12.15
2022-11-17T16:04:17.548Z,16.98
2022-11-17T16:06:46.147Z,15.88
2022-11-17T16:09:13.998Z,15.00
2022-11-17T16:11:41.265Z,15.85
2022-11-17T16:14:08.469Z,9.85
2022-11-17T16:16:38.100Z,7.43
2022-11-17T16:19:05.613Z,5.38
2022-11-17T16:21:32.913Z,4.30
2022-11-17T16:24:00.988Z,4.75
2022-11-17T16:26:28.986Z,4.22
2022-11-17T16:29:06.650Z,3.42
2022-11-17T16:31:38.271Z,4.90
2022-11-17T16:34:07.854Z,3.13
2022-11-17T16:36:38.505Z,2.92
2022-11-17T16:39:07.580Z,3.58
2022-11-17T16:41:37.262Z,4.03
2022-11-17T16:44:08.722Z,7.22
2022-11-17T16:46:35.971Z,6.03
2022-11-17T16:49:06.536Z,5.90
2022-11-17T16:51:33.820Z,11.88
2022-11-17T16:54:06.012Z,12.02
2022-11-17T16:56:34.137Z,11.23
2022-11-17T16:59:01.048Z,11.07
2022-11-17T17:01:34.625Z,9.73
2022-11-17T17:04:10.032Z,7.45
2022-11-17T17:06:39.958Z,7.40
2022-11-17T17:09:08.409Z,5.25
2022-11-17T17:11:36.678Z,4.75
2022-11-17T17:14:08.486Z,4.72
2022-11-17T17:16:37.434Z,5.28
2022-11-17T17:19:06.600Z,6.82
2022-11-17T17:21:35.180Z,8.38
2022-11-17T17:24:02.564Z,9.20
2022-11-17T17:26:31.084Z,14.63
2022-11-17T17:29:00.375Z,16.08
2022-11-17T17:31:32.353Z,14.35
2022-11-17T17:34:02.262Z,12.82
2022-11-17T17:36:29.399Z,12.13
2022-11-17T17:38:58.934Z,11.40
2022-11-17T17:41:27.626Z,17.63
2022-11-17T17:43:58.558Z,18.73
2022-11-17T17:46:26.144Z,12.57
2022-11-17T17:48:53.269Z,13.60
2022-11-17T17:51:21.724Z,12.63
2022-11-17T17:53:51.251Z,16.25
2022-11-17T17:56:20.267Z,14.88
2022-11-17T17:58:49.012Z,24.25
2022-11-17T18:01:17.374Z,11.10
2022-11-17T18:03:46.395Z,10.40
2022-11-17T18:06:14.853Z,6.68
2022-11-17T18:09:21.520Z,5.82
2022-11-17T18:15:39.716Z,5.25
2022-11-17T18:18:06.754Z,4.30
2022-11-17T18:20:33.790Z,5.28
2022-11-17T18:23:00.662Z,4.80
2022-11-17T18:25:27.447Z,5.10
2022-11-17T18:27:54.234Z,4.80
2022-11-17T18:30:21.028Z,3.63
2022-11-17T18:32:47.802Z,4.97
2022-11-17T18:35:15.857Z,4.35
2022-11-17T18:37:42.717Z,4.88
2022-11-17T18:40:11.771Z,6.30
2022-11-17T18:42:38.584Z,9.95
2022-11-17T18:45:05.689Z,12.98
2022-11-17T18:47:32.612Z,9.23
2022-11-17T18:49:59.371Z,7.95
2022-11-17T18:52:31.256Z,11.80
2022-11-17T18:54:58.338Z,11.05
2022-11-17T18:57:25.066Z,6.22
2022-11-17T18:59:51.872Z,4.53
2022-11-17T19:02:18.585Z,5.25
2022-11-17T19:04:45.471Z,4.60
2022-11-17T19:07:12.479Z,5.25
2022-11-17T19:09:39.335Z,5.78
2022-11-17T19:12:08.843Z,4.40
2022-11-17T19:14:35.851Z,3.95
2022-11-17T19:17:02.620Z,4.38
2022-11-17T19:19:29.532Z,4.78
2022-11-17T19:21:56.417Z,6.35
2022-11-17T19:24:23.321Z,4.28
2022-11-17T19:26:50.070Z,4.88
2022-11-17T19:29:17.793Z,4.57
2022-11-17T19:31:46.120Z,4.13
2022-11-17T19:34:15.038Z,5.00
2022-11-17T19:36:42.314Z,4.43
2022-11-17T19:39:12.287Z,5.43
2022-11-17T19:41:40.287Z,5.40
2022-11-17T19:44:09.211Z,5.70
2022-11-17T19:46:36.946Z,4.63
2022-11-17T19:49:06.222Z,5.25
2022-11-17T19:51:36.543Z,5.15
2022-11-17T19:54:07.911Z,4.30
2022-11-17T19:56:35.822Z,5.03
2022-11-17T19:59:03.509Z,4.13
2022-11-17T20:01:31.790Z,5.28
2022-11-17T20:04:00.471Z,5.65
2022-11-17T20:06:32.114Z,3.75
2022-11-17T20:09:00.307Z,3.97
2022-11-17T20:11:28.805Z,3.67
2022-11-17T20:13:56.119Z,4.22
2022-11-17T20:16:25.727Z,3.70
2022-11-17T20:18:57.866Z,4.10
2022-11-17T20:21:26.318Z,4.70
2022-11-17T20:23:55.291Z,4.43
2022-11-17T20:26:24.916Z,3.15
2022-11-17T20:28:52.674Z,5.38
2022-11-17T20:31:22.156Z,3.80
2022-11-17T20:33:49.535Z,3.85
2022-11-17T20:36:18.920Z,4.95
2022-11-17T20:38:50.903Z,5.07
2022-11-17T20:41:18.274Z,4.13
2022-11-17T20:43:48.348Z,3.90
2022-11-17T20:46:18.303Z,4.30
2022-11-17T20:48:45.578Z,3.72
2022-11-17T20:51:15.454Z,3.60
2022-11-17T20:53:43.287Z,8.52
2022-11-17T20:56:12.052Z,7.22
2022-11-17T20:58:39.305Z,5.72
2022-11-17T21:01:14.866Z,4.63
2022-11-17T21:03:42.634Z,4.70
2022-11-17T21:06:09.892Z,7.80
2022-11-17T21:08:39.512Z,6.15
2022-11-17T21:11:32.256Z,4.80
2022-11-17T21:14:00.039Z,4.80
2022-11-17T21:16:27.240Z,5.00
2022-11-17T21:19:02.529Z,4.00
2022-11-17T21:21:29.790Z,3.70
2022-11-17T21:23:56.628Z,4.75
2022-11-17T21:26:23.749Z,4.28
2022-11-17T21:28:51.631Z,3.70
2022-11-17T21:31:24.058Z,6.18
2022-11-17T21:33:55.466Z,6.20
2022-11-17T21:36:23.779Z,5.07
2022-11-17T21:38:51.071Z,4.10
2022-11-17T21:41:22.158Z,3.25
2022-11-17T21:43:50.621Z,3.53
2022-11-17T21:46:20.262Z,3.30
2022-11-17T21:48:48.144Z,3.05
2022-11-17T21:51:19.813Z,3.17
2022-11-17T21:53:47.460Z,3.90
2022-11-17T21:56:14.389Z,3.13
2022-11-17T21:58:41.633Z,4.10
2022-11-17T22:01:14.408Z,4.35
2022-11-17T22:03:42.235Z,3.90
2022-11-17T22:06:20.468Z,3.65
2022-11-17T22:08:48.325Z,4.10
2022-11-17T22:11:35.239Z,4.30
2022-11-17T22:14:06.931Z,4.25
2022-11-17T22:16:36.368Z,5.07
2022-11-17T22:19:03.893Z,5.45
2022-11-17T22:21:31.379Z,3.83
2022-11-17T22:23:58.346Z,3.60
2022-11-17T22:26:25.377Z,4.00
2022-11-17T22:28:54.297Z,4.30
2022-11-17T22:31:22.626Z,3.83
2022-11-17T22:33:50.787Z,3.33
2022-11-17T22:36:18.879Z,3.15
2022-11-17T22:38:49.050Z,4.03
2022-11-17T22:41:15.996Z,4.55
2022-11-17T22:43:42.892Z,4.47
2022-11-17T22:46:11.322Z,3.97
2022-11-17T22:48:38.399Z,3.15
2022-11-17T22:51:08.323Z,3.00
2022-11-17T22:53:35.213Z,4.18
2022-11-17T22:56:06.504Z,3.55
2022-11-17T22:58:34.175Z,4.13
2022-11-17T23:01:07.740Z,4.25
2022-11-17T23:03:34.902Z,3.50
2022-11-17T23:06:03.321Z,4.25
2022-11-17T23:08:30.759Z,3.78
2022-11-17T23:11:35.384Z,2.95
2022-11-17T23:13:53.774Z,2.90
2022-11-17T23:16:20.585Z,2.97
2022-11-17T23:18:47.370Z,3.03
2022-11-17T23:21:14.132Z,3.20
2022-11-17T23:23:41.237Z,3.00
2022-11-17T23:26:10.436Z,2.97
2022-11-17T23:28:39.244Z,2.70
2022-11-17T23:31:10.041Z,3.00
2022-11-17T23:33:40.319Z,2.42
2022-11-17T23:36:11.984Z,2.88
2022-11-17T23:38:38.883Z,4.07
2022-11-17T23:41:07.803Z,4.20
2022-11-17T23:43:34.619Z,3.38
2022-11-17T23:46:11.285Z,3.03
2022-11-17T23:48:38.094Z,3.30
2022-11-17T23:51:17.694Z,3.30
2022-11-17T23:53:44.724Z,3.63
2022-11-17T23:56:11.527Z,2.92
2022-11-17T23:58:39.055Z,3.40
